createdAt,value
2022-11-07T00:00:50.079Z,995.08
2022-11-07T00:01:47.298Z,994.98
2022-11-07T00:02:47.314Z,995.10
2022-11-07T00:03:47.251Z,995.08
2022-11-07T00:04:47.232Z,995.06
2022-11-07T00:05:47.390Z,995.11
2022-11-07T00:06:47.189Z,995.03
2022-11-07T00:07:47.187Z,995.01
2022-11-07T00:08:47.182Z,995.05
2022-11-07T00:09:47.161Z,994.99
2022-11-07T00:10:47.212Z,994.99
2022-11-07T00:11:47.152Z,995.07
2022-11-07T00:12:47.147Z,994.98
2022-11-07T00:13:47.129Z,994.98
2022-11-07T00:14:47.131Z,995.03
2022-11-07T00:15:47.120Z,995.00
2022-11-07T00:16:47.093Z,994.98
2022-11-07T00:17:47.111Z,995.05
2022-11-07T00:18:47.074Z,995.05
2022-11-07T00:19:47.050Z,995.03
2022-11-07T00:20:47.056Z,995.10
2022-11-07T00:21:47.071Z,995.07
2022-11-07T00:22:47.012Z,995.12
2022-11-07T00:23:47.012Z,995.09
2022-11-07T00:24:47.007Z,995.06
2022-11-07T00:25:47.006Z,995.09
2022-11-07T00:26:47.081Z,995.11
2022-11-07T00:27:46.986Z,995.03
2022-11-07T00:28:46.948Z,995.15
2022-11-07T00:29:46.943Z,995.09
2022-11-07T00:30:46.928Z,995.12
2022-11-07T00:31:46.935Z,995.14
2022-11-07T00:32:46.968Z,995.14
2022-11-07T00:33:46.918Z,995.19
2022-11-07T00:34:46.906Z,995.22
2022-11-07T00:35:46.857Z,995.25
2022-11-07T00:36:46.877Z,995.22
2022-11-07T00:37:46.887Z,995.18
2022-11-07T00:38:46.825Z,995.18
2022-11-07T00:39:46.859Z,995.18
2022-11-07T00:40:46.808Z,995.22
2022-11-07T00:41:46.809Z,995.24
2022-11-07T00:42:46.807Z,995.28
2022-11-07T00:43:46.768Z,995.24
2022-11-07T00:44:46.806Z,995.29
2022-11-07T00:45:46.790Z,995.29
2022-11-07T00:46:46.790Z,995.40
2022-11-07T00:47:46.752Z,995.39
2022-11-07T00:48:46.732Z,995.29
2022-11-07T00:49:46.716Z,995.31
2022-11-07T00:50:46.689Z,995.32
2022-11-07T00:51:46.719Z,995.36
2022-11-07T00:52:46.702Z,995.36
2022-11-07T00:53:46.667Z,995.29
2022-11-07T00:54:46.663Z,995.32
2022-11-07T00:55:46.632Z,995.33
2022-11-07T00:56:46.662Z,995.37
2022-11-07T00:57:46.623Z,995.35
2022-11-07T00:58:46.634Z,995.37
2022-11-07T00:59:46.613Z,995.37
2022-11-07T01:00:46.571Z,995.41
2022-11-07T01:01:46.666Z,995.34
2022-11-07T01:02:46.815Z,995.34
2022-11-07T01:03:46.566Z,995.32
2022-11-07T01:04:46.551Z,995.31
2022-11-07T01:05:46.553Z,995.36
2022-11-07T01:06:46.538Z,995.30
2022-11-07T01:07:46.515Z,995.33
2022-11-07T01:08:46.529Z,995.31
2022-11-07T01:09:46.473Z,995.27
2022-11-07T01:10:46.480Z,995.21
2022-11-07T01:11:46.473Z,995.30
2022-11-07T01:12:46.435Z,995.28
2022-11-07T01:13:46.466Z,995.34
2022-11-07T01:14:46.489Z,995.41
2022-11-07T01:15:46.421Z,995.49
2022-11-07T01:16:46.417Z,995.42
2022-11-07T01:17:46.427Z,995.45
2022-11-07T01:18:46.375Z,995.49
2022-11-07T01:19:46.376Z,995.50
2022-11-07T01:20:46.358Z,995.47
2022-11-07T01:21:46.355Z,995.52
2022-11-07T01:22:46.360Z,995.46
2022-11-07T01:23:46.328Z,995.48
2022-11-07T01:24:46.318Z,995.46
2022-11-07T01:25:46.298Z,995.52
2022-11-07T01:26:46.302Z,995.52
2022-11-07T01:27:46.257Z,995.57
2022-11-07T01:28:46.308Z,995.61
2022-11-07T01:29:46.268Z,995.67
2022-11-07T01:30:46.239Z,995.66
2022-11-07T01:31:46.215Z,995.71
2022-11-07T01:32:46.212Z,995.77
2022-11-07T01:33:46.199Z,995.75
2022-11-07T01:34:46.252Z,995.77
2022-11-07T01:35:46.169Z,995.72
2022-11-07T01:36:46.172Z,995.78
2022-11-07T01:37:46.164Z,995.78
2022-11-07T01:38:46.148Z,995.83
2022-11-07T01:39:46.184Z,995.84
2022-11-07T01:40:46.112Z,995.88
2022-11-07T01:41:46.100Z,995.85
2022-11-07T01:42:46.104Z,995.84
2022-11-07T01:43:46.103Z,995.79
2022-11-07T01:44:46.121Z,995.74
2022-11-07T01:45:46.055Z,995.76
2022-11-07T01:46:46.042Z,995.70
2022-11-07T01:47:46.031Z,995.71
2022-11-07T01:48:46.027Z,995.65
2022-11-07T01:49:46.047Z,995.75
2022-11-07T01:50:46.013Z,995.72
2022-11-07T01:51:45.996Z,995.79
2022-11-07T01:52:45.988Z,995.80
2022-11-07T01:53:45.977Z,995.80
2022-11-07T01:54:45.968Z,995.75
2022-11-07T01:55:45.967Z,995.80
2022-11-07T01:56:45.934Z,995.74
2022-11-07T01:57:45.924Z,995.74
2022-11-07T01:58:45.905Z,995.75
2022-11-07T01:59:45.916Z,995.78
2022-11-07T02:00:45.875Z,995.80
2022-11-07T02:01:46.010Z,995.81
2022-11-07T02:02:45.962Z,995.89
2022-11-07T02:03:45.890Z,995.88
2022-11-07T02:04:45.846Z,995.90
2022-11-07T02:05:45.840Z,995.88
2022-11-07T02:06:45.826Z,995.96
2022-11-07T02:07:45.850Z,995.96
2022-11-07T02:08:45.870Z,996.04
2022-11-07T02:09:45.840Z,996.03
2022-11-07T02:10:45.777Z,996.09
2022-11-07T02:11:45.772Z,996.02
2022-11-07T02:12:45.749Z,996.01
2022-11-07T02:13:45.752Z,996.08
2022-11-07T02:14:45.761Z,996.07
2022-11-07T02:15:45.740Z,996.10
2022-11-07T02:16:45.702Z,996.13
2022-11-07T02:17:45.694Z,996.16
2022-11-07T02:18:45.712Z,996.12
2022-11-07T02:19:45.665Z,996.10
2022-11-07T02:20:45.683Z,996.10
2022-11-07T02:21:45.630Z,996.12
2022-11-07T02:22:45.714Z,996.10
2022-11-07T02:23:45.640Z,996.11
2022-11-07T02:24:45.602Z,996.13
2022-11-07T02:25:45.642Z,996.19
2022-11-07T02:26:45.586Z,996.20
2022-11-07T02:27:45.598Z,996.19
2022-11-07T02:28:45.574Z,996.26
2022-11-07T02:29:45.539Z,996.24
2022-11-07T02:30:45.550Z,996.30
2022-11-07T02:31:45.585Z,996.34
2022-11-07T02:32:45.515Z,996.31
2022-11-07T02:33:45.492Z,996.28
2022-11-07T02:34:45.546Z,996.28
2022-11-07T02:35:45.480Z,996.27
2022-11-07T02:36:45.486Z,996.17
2022-11-07T02:37:45.483Z,996.16
2022-11-07T02:38:45.476Z,996.20
2022-11-07T02:39:45.424Z,996.20
2022-11-07T02:40:45.443Z,996.21
2022-11-07T02:41:45.451Z,996.20
2022-11-07T02:42:45.408Z,996.20
2022-11-07T02:43:45.404Z,996.20
2022-11-07T02:44:45.373Z,996.21
2022-11-07T02:45:45.448Z,996.25
2022-11-07T02:46:45.345Z,996.29
2022-11-07T02:47:45.335Z,996.31
2022-11-07T02:48:45.350Z,996.32
2022-11-07T02:49:45.336Z,996.30
2022-11-07T02:50:45.306Z,996.33
2022-11-07T02:51:45.346Z,996.34
2022-11-07T02:52:45.291Z,996.31
2022-11-07T02:53:45.315Z,996.35
2022-11-07T02:54:45.281Z,996.31
2022-11-07T02:55:45.253Z,996.30
2022-11-07T02:56:45.257Z,996.32
2022-11-07T02:57:45.229Z,996.34
2022-11-07T02:58:45.252Z,996.29
2022-11-07T02:59:45.218Z,996.34
2022-11-07T03:00:45.192Z,996.38
2022-11-07T03:01:45.319Z,996.41
2022-11-07T03:02:45.339Z,996.38
2022-11-07T03:03:45.200Z,996.38
2022-11-07T03:04:49.006Z,996.38
2022-11-07T03:05:45.155Z,996.43
2022-11-07T03:06:45.137Z,996.43
2022-11-07T03:07:45.126Z,996.42
2022-11-07T03:08:45.121Z,996.45
2022-11-07T03:09:45.124Z,996.45
2022-11-07T03:10:45.073Z,996.47
2022-11-07T03:11:45.112Z,996.46
2022-11-07T03:12:45.056Z,996.43
2022-11-07T03:13:45.042Z,996.44
2022-11-07T03:14:45.152Z,996.49
2022-11-07T03:15:45.027Z,996.48
2022-11-07T03:16:45.015Z,996.47
2022-11-07T03:17:45.006Z,996.50
2022-11-07T03:18:44.992Z,996.54
2022-11-07T03:19:45.013Z,996.53
2022-11-07T03:20:44.995Z,996.53
2022-11-07T03:21:44.998Z,996.55
2022-11-07T03:22:44.936Z,996.57
2022-11-07T03:23:44.924Z,996.52
2022-11-07T03:24:44.919Z,996.57
2022-11-07T03:25:44.925Z,996.50
2022-11-07T03:26:44.896Z,996.51
2022-11-07T03:27:44.903Z,996.51
2022-11-07T03:28:44.863Z,996.49
2022-11-07T03:29:44.888Z,996.50
2022-11-07T03:30:44.909Z,996.47
2022-11-07T03:31:44.910Z,996.49
2022-11-07T03:32:44.824Z,996.57
2022-11-07T03:33:44.841Z,996.54
2022-11-07T03:34:44.797Z,996.55
2022-11-07T03:35:44.817Z,996.55
2022-11-07T03:36:44.778Z,996.50
2022-11-07T03:37:44.758Z,996.55
2022-11-07T03:38:44.818Z,996.61
2022-11-07T03:39:44.729Z,996.61
2022-11-07T03:40:44.738Z,996.64
2022-11-07T03:41:44.739Z,996.66
2022-11-07T03:42:44.715Z,996.67
2022-11-07T03:43:44.713Z,996.65
2022-11-07T03:44:44.709Z,996.63
2022-11-07T03:45:44.671Z,996.61
2022-11-07T03:46:44.660Z,996.58
2022-11-07T03:47:44.684Z,996.62
2022-11-07T03:48:44.632Z,996.64
2022-11-07T03:49:44.655Z,996.72
2022-11-07T03:50:44.645Z,996.68
2022-11-07T03:51:44.617Z,996.72
2022-11-07T03:52:44.620Z,996.66
2022-11-07T03:53:44.572Z,996.65
2022-11-07T03:54:44.573Z,996.70
2022-11-07T03:55:44.556Z,996.70
2022-11-07T03:56:44.580Z,996.69
2022-11-07T03:57:44.537Z,996.66
2022-11-07T03:58:44.512Z,996.68
2022-11-07T03:59:44.542Z,996.57
2022-11-07T04:00:44.493Z,996.66
2022-11-07T04:01:44.690Z,996.64
2022-11-07T04:02:44.597Z,996.67
2022-11-07T04:03:44.460Z,996.61
2022-11-07T04:04:44.458Z,996.60
2022-11-07T04:05:44.488Z,996.59
2022-11-07T04:06:44.427Z,996.64
2022-11-07T04:07:44.448Z,996.62
2022-11-07T04:08:44.416Z,996.66
2022-11-07T04:09:44.406Z,996.66
2022-11-07T04:10:44.415Z,996.67
2022-11-07T04:11:44.393Z,996.60
2022-11-07T04:12:44.358Z,996.72
2022-11-07T04:13:44.337Z,996.68
2022-11-07T04:14:44.359Z,996.68
2022-11-07T04:15:44.356Z,996.75
2022-11-07T04:16:44.350Z,996.76
2022-11-07T04:17:44.310Z,996.74
2022-11-07T04:18:44.278Z,996.73
2022-11-07T04:19:44.301Z,996.73
2022-11-07T04:20:44.308Z,996.73
2022-11-07T04:21:44.312Z,996.74
2022-11-07T04:22:44.273Z,996.75
2022-11-07T04:23:44.246Z,996.81
2022-11-07T04:24:45.928Z,996.78
2022-11-07T04:25:44.253Z,996.80
2022-11-07T04:26:44.220Z,996.84
2022-11-07T04:27:44.207Z,996.86
2022-11-07T04:28:44.204Z,996.87
2022-11-07T04:29:44.163Z,996.87
2022-11-07T04:30:44.150Z,996.85
2022-11-07T04:31:44.150Z,996.84
2022-11-07T04:32:44.179Z,996.86
2022-11-07T04:33:44.131Z,996.79
2022-11-07T04:34:44.124Z,996.81
2022-11-07T04:35:44.091Z,996.79
2022-11-07T04:36:44.142Z,996.83
2022-11-07T04:37:44.082Z,996.85
2022-11-07T04:38:44.076Z,996.91
2022-11-07T04:39:44.072Z,996.89
2022-11-07T04:40:44.047Z,996.86
2022-11-07T04:41:44.024Z,996.90
2022-11-07T04:42:44.053Z,996.92
2022-11-07T04:43:44.009Z,996.91
2022-11-07T04:44:44.048Z,996.95
2022-11-07T04:45:43.974Z,996.90
2022-11-07T04:46:44.006Z,996.94
2022-11-07T04:47:43.966Z,996.92
2022-11-07T04:48:43.940Z,996.87
2022-11-07T04:49:43.963Z,996.92
2022-11-07T04:50:43.939Z,996.96
2022-11-07T04:51:43.938Z,996.96
2022-11-07T04:52:43.923Z,996.89
2022-11-07T04:53:43.944Z,996.85
2022-11-07T04:54:43.908Z,996.87
2022-11-07T04:55:43.867Z,996.82
2022-11-07T04:56:43.857Z,996.86
2022-11-07T04:57:43.865Z,996.87
2022-11-07T04:58:43.827Z,996.79
2022-11-07T04:59:43.830Z,996.80
2022-11-07T05:00:43.828Z,996.82
2022-11-07T05:01:43.847Z,996.79
2022-11-07T05:02:43.864Z,996.78
2022-11-07T05:03:43.832Z,996.76
2022-11-07T05:04:43.772Z,996.77
2022-11-07T05:05:43.772Z,996.75
2022-11-07T05:06:43.729Z,996.76
2022-11-07T05:07:43.749Z,996.80
2022-11-07T05:08:43.742Z,996.81
2022-11-07T05:09:43.721Z,996.74
2022-11-07T05:10:43.688Z,996.79
2022-11-07T05:11:43.708Z,996.73
2022-11-07T05:12:43.658Z,996.79
2022-11-07T05:13:43.682Z,996.80
2022-11-07T05:14:43.630Z,996.78
2022-11-07T05:15:43.641Z,996.80
2022-11-07T05:16:43.621Z,996.78
2022-11-07T05:17:43.611Z,996.86
2022-11-07T05:18:43.604Z,996.88
2022-11-07T05:19:43.612Z,996.86
2022-11-07T05:20:43.572Z,996.91
2022-11-07T05:21:43.583Z,996.90
2022-11-07T05:22:43.556Z,996.91
2022-11-07T05:23:43.567Z,996.89
2022-11-07T05:24:43.527Z,996.93
2022-11-07T05:25:43.507Z,996.93
2022-11-07T05:26:43.523Z,996.96
2022-11-07T05:27:43.517Z,996.94
2022-11-07T05:28:43.492Z,996.94
2022-11-07T05:29:43.497Z,996.97
2022-11-07T05:30:43.478Z,996.93
2022-11-07T05:31:43.464Z,996.99
2022-11-07T05:32:43.458Z,996.97
2022-11-07T05:33:43.441Z,996.99
2022-11-07T05:34:43.428Z,997.00
2022-11-07T05:35:43.416Z,997.03
2022-11-07T05:36:43.405Z,997.10
2022-11-07T05:37:43.381Z,997.13
2022-11-07T05:38:43.417Z,997.16
2022-11-07T05:39:43.357Z,997.08
2022-11-07T05:40:43.348Z,997.17
2022-11-07T05:41:43.307Z,997.19
2022-11-07T05:42:43.306Z,997.18
2022-11-07T05:43:43.317Z,997.12
2022-11-07T05:44:43.352Z,997.17
2022-11-07T05:45:43.278Z,997.18
2022-11-07T05:46:43.283Z,997.16
2022-11-07T05:47:43.271Z,997.16
2022-11-07T05:48:43.273Z,997.20
2022-11-07T05:49:43.252Z,997.20
2022-11-07T05:50:43.209Z,997.17
2022-11-07T05:51:43.211Z,997.16
2022-11-07T05:52:43.235Z,997.17
2022-11-07T05:53:43.200Z,997.23
2022-11-07T05:54:43.225Z,997.23
2022-11-07T05:55:43.161Z,997.25
2022-11-07T05:56:43.143Z,997.34
2022-11-07T05:57:43.145Z,997.36
2022-11-07T05:58:43.155Z,997.34
2022-11-07T05:59:43.181Z,997.38
2022-11-07T06:00:43.127Z,997.40
2022-11-07T06:01:44.801Z,997.36
2022-11-07T06:02:43.220Z,997.32
2022-11-07T06:03:43.111Z,997.28
2022-11-07T06:04:43.065Z,997.38
2022-11-07T06:05:43.065Z,997.36
2022-11-07T06:06:43.023Z,997.36
2022-11-07T06:07:43.023Z,997.38
2022-11-07T06:08:43.122Z,997.37
2022-11-07T06:09:42.994Z,997.38
2022-11-07T06:10:42.985Z,997.38
2022-11-07T06:11:42.984Z,997.41
2022-11-07T06:12:42.966Z,997.41
2022-11-07T06:13:42.957Z,997.32
2022-11-07T06:14:43.006Z,997.28
2022-11-07T06:15:42.945Z,997.34
2022-11-07T06:16:42.920Z,997.33
2022-11-07T06:17:42.897Z,997.34
2022-11-07T06:18:42.904Z,997.36
2022-11-07T06:19:42.886Z,997.36
2022-11-07T06:20:42.925Z,997.35
2022-11-07T06:21:42.905Z,997.34
2022-11-07T06:22:42.836Z,997.39
2022-11-07T06:23:42.842Z,997.44
2022-11-07T06:24:42.808Z,997.47
2022-11-07T06:25:42.835Z,997.50
2022-11-07T06:26:42.872Z,997.42
2022-11-07T06:27:42.800Z,997.45
2022-11-07T06:28:42.778Z,997.39
2022-11-07T06:29:42.772Z,997.42
2022-11-07T06:30:42.772Z,997.47
2022-11-07T06:31:42.779Z,997.46
2022-11-07T06:32:42.772Z,997.45
2022-11-07T06:33:42.743Z,997.41
2022-11-07T06:34:42.743Z,997.43
2022-11-07T06:35:42.680Z,997.42
2022-11-07T06:36:42.670Z,997.47
2022-11-07T06:37:42.670Z,997.45
2022-11-07T06:38:42.673Z,997.50
2022-11-07T06:39:42.893Z,997.40
2022-11-07T06:40:42.800Z,997.43
2022-11-07T06:41:42.655Z,997.44
2022-11-07T06:42:42.619Z,997.40
2022-11-07T06:43:42.634Z,997.36
2022-11-07T06:44:42.585Z,997.32
2022-11-07T06:45:42.589Z,997.37
2022-11-07T06:46:42.596Z,997.39
2022-11-07T06:47:42.543Z,997.40
2022-11-07T06:48:42.533Z,997.41
2022-11-07T06:49:42.567Z,997.41
2022-11-07T06:50:42.546Z,997.41
2022-11-07T06:51:46.885Z,997.40
2022-11-07T06:52:43.521Z,997.44
2022-11-07T06:53:42.505Z,997.40
2022-11-07T06:54:42.508Z,997.34
2022-11-07T06:55:42.464Z,997.40
2022-11-07T06:56:42.538Z,997.42
2022-11-07T06:57:42.708Z,997.36
2022-11-07T06:58:42.449Z,997.41
2022-11-07T06:59:43.277Z,997.40
2022-11-07T07:00:42.466Z,997.39
2022-11-07T07:01:42.604Z,997.41
2022-11-07T07:02:57.947Z,997.42
2022-11-07T07:03:43.380Z,997.51
2022-11-07T07:04:42.401Z,997.45
2022-11-07T07:05:42.349Z,997.43
2022-11-07T07:06:42.342Z,997.40
2022-11-07T07:07:42.308Z,997.43
2022-11-07T07:08:42.342Z,997.48
2022-11-07T07:09:42.320Z,997.59
2022-11-07T07:10:42.343Z,997.67
2022-11-07T07:11:42.285Z,997.58
2022-11-07T07:12:42.273Z,997.60
2022-11-07T07:13:42.304Z,997.65
2022-11-07T07:14:42.230Z,997.61
2022-11-07T07:15:50.872Z,997.60
2022-11-07T07:16:43.233Z,997.62
2022-11-07T07:17:42.200Z,997.58
2022-11-07T07:18:42.225Z,997.63
2022-11-07T07:19:42.181Z,997.60
2022-11-07T07:20:42.205Z,997.63
2022-11-07T07:21:42.194Z,997.64
2022-11-07T07:22:43.162Z,997.64
2022-11-07T07:23:42.145Z,997.66
2022-11-07T07:24:42.120Z,997.65
2022-11-07T07:25:42.127Z,997.69
2022-11-07T07:26:42.331Z,997.74
2022-11-07T07:27:42.109Z,997.69
2022-11-07T07:28:42.077Z,997.70
2022-11-07T07:29:42.095Z,997.71
2022-11-07T07:30:45.865Z,997.73
2022-11-07T07:31:43.075Z,997.74
2022-11-07T07:32:42.039Z,997.77
2022-11-07T07:33:42.019Z,997.66
2022-11-07T07:34:42.086Z,997.64
2022-11-07T07:35:42.030Z,997.71
2022-11-07T07:36:41.989Z,997.66
2022-11-07T07:37:42.016Z,997.69
2022-11-07T07:38:41.957Z,997.66
2022-11-07T07:39:42.188Z,997.81
2022-11-07T07:40:41.939Z,997.66
2022-11-07T07:41:41.951Z,997.70
2022-11-07T07:42:42.040Z,997.68
2022-11-07T07:43:41.930Z,997.72
2022-11-07T07:44:41.888Z,997.71
2022-11-07T07:45:42.509Z,997.64
2022-11-07T07:46:41.880Z,997.70
2022-11-07T07:47:41.901Z,997.65
2022-11-07T07:48:41.838Z,997.75
2022-11-07T07:49:41.834Z,997.79
2022-11-07T07:50:41.890Z,997.83
2022-11-07T07:51:41.846Z,997.74
2022-11-07T07:52:41.839Z,997.80
2022-11-07T07:53:41.798Z,997.80
2022-11-07T07:54:41.891Z,997.81
2022-11-07T07:55:42.920Z,997.84
2022-11-07T07:56:42.020Z,997.87
2022-11-07T07:57:41.990Z,997.78
2022-11-07T07:58:41.770Z,997.83
2022-11-07T07:59:41.720Z,997.83
2022-11-07T08:00:41.757Z,997.90
2022-11-07T08:01:41.901Z,997.85
2022-11-07T08:02:41.683Z,997.82
2022-11-07T08:04:00.137Z,997.81
2022-11-07T08:04:42.716Z,997.86
2022-11-07T08:05:41.686Z,997.88
2022-11-07T08:06:41.678Z,997.87
2022-11-07T08:07:41.656Z,997.88
2022-11-07T08:08:41.629Z,997.92
2022-11-07T08:09:41.623Z,997.93
2022-11-07T08:10:43.009Z,997.89
2022-11-07T08:11:41.597Z,997.88
2022-11-07T08:12:41.618Z,997.91
2022-11-07T08:13:41.568Z,997.92
2022-11-07T08:14:41.593Z,997.91
2022-11-07T08:15:41.537Z,997.89
2022-11-07T08:16:42.548Z,997.88
2022-11-07T08:17:41.521Z,997.99
2022-11-07T08:18:41.558Z,997.89
2022-11-07T08:19:41.489Z,997.89
2022-11-07T08:20:41.493Z,997.83
2022-11-07T08:21:41.476Z,997.89
2022-11-07T08:22:41.449Z,997.91
2022-11-07T08:23:41.478Z,997.94
2022-11-07T08:24:41.490Z,997.87
2022-11-07T08:25:41.426Z,997.86
2022-11-07T08:26:41.535Z,997.83
2022-11-07T08:27:42.408Z,997.85
2022-11-07T08:28:41.409Z,997.89
2022-11-07T08:29:41.391Z,997.85
2022-11-07T08:30:41.392Z,997.90
2022-11-07T08:31:41.361Z,997.90
2022-11-07T08:32:41.332Z,997.93
2022-11-07T08:33:41.443Z,997.89
2022-11-07T08:34:41.337Z,997.89
2022-11-07T08:35:42.642Z,997.90
2022-11-07T08:36:41.301Z,997.89
2022-11-07T08:37:41.295Z,997.88
2022-11-07T08:38:41.301Z,997.91
2022-11-07T08:39:41.341Z,997.87
2022-11-07T08:40:41.303Z,997.92
2022-11-07T08:41:41.302Z,997.95
2022-11-07T08:42:42.278Z,997.92
2022-11-07T08:43:41.235Z,997.92
2022-11-07T08:44:41.254Z,997.87
2022-11-07T08:45:41.220Z,997.83
2022-11-07T08:46:41.415Z,997.94
2022-11-07T08:47:41.229Z,997.89
2022-11-07T08:48:41.301Z,997.86
2022-11-07T08:49:41.194Z,997.95
2022-11-07T08:50:41.340Z,997.91
2022-11-07T08:51:41.558Z,998.01
2022-11-07T08:52:41.119Z,997.91
2022-11-07T08:53:41.156Z,997.96
2022-11-07T08:54:41.111Z,997.96
2022-11-07T08:55:41.449Z,997.93
2022-11-07T08:56:41.110Z,997.98
2022-11-07T08:57:41.095Z,997.92
2022-11-07T08:58:41.061Z,997.92
2022-11-07T08:59:41.040Z,997.99
2022-11-07T09:00:41.131Z,997.96
2022-11-07T09:02:14.425Z,997.91
2022-11-07T09:03:56.441Z,997.96
2022-11-07T09:04:42.035Z,997.99
2022-11-07T09:05:40.969Z,997.92
2022-11-07T09:06:40.963Z,997.99
2022-11-07T09:07:40.988Z,998.01
2022-11-07T09:08:41.075Z,998.03
2022-11-07T09:09:41.009Z,997.97
2022-11-07T09:10:40.959Z,997.99
2022-11-07T09:11:40.937Z,997.96
2022-11-07T09:12:40.881Z,997.98
2022-11-07T09:13:40.887Z,997.97
2022-11-07T09:14:40.894Z,997.98
2022-11-07T09:15:43.764Z,997.96
2022-11-07T09:16:41.892Z,997.93
2022-11-07T09:17:40.855Z,997.98
2022-11-07T09:18:40.871Z,997.96
2022-11-07T09:19:40.804Z,998.03
2022-11-07T09:20:40.839Z,997.94
2022-11-07T09:21:41.113Z,998.04
2022-11-07T09:22:40.773Z,998.02
2022-11-07T09:23:41.045Z,997.99
2022-11-07T09:24:40.767Z,997.94
2022-11-07T09:25:40.787Z,997.87
2022-11-07T09:26:40.755Z,997.91
2022-11-07T09:27:40.734Z,997.89
2022-11-07T09:28:48.462Z,997.93
2022-11-07T09:29:41.756Z,997.92
2022-11-07T09:30:40.718Z,997.91
2022-11-07T09:31:40.719Z,997.91
2022-11-07T09:32:45.419Z,997.92
2022-11-07T09:33:41.692Z,997.92
2022-11-07T09:34:40.660Z,997.89
2022-11-07T09:35:40.679Z,997.93
2022-11-07T09:36:40.661Z,997.89
2022-11-07T09:37:40.611Z,997.89
2022-11-07T09:38:40.641Z,997.83
2022-11-07T09:39:40.615Z,997.83
2022-11-07T09:40:40.838Z,997.79
2022-11-07T09:41:40.620Z,997.87
2022-11-07T09:42:40.549Z,997.86
2022-11-07T09:43:40.561Z,997.92
2022-11-07T09:44:40.542Z,997.96
2022-11-07T09:45:40.539Z,997.84
2022-11-07T09:46:40.561Z,997.87
2022-11-07T09:47:40.541Z,997.85
2022-11-07T09:48:40.470Z,997.84
2022-11-07T09:49:44.230Z,997.81
2022-11-07T09:50:40.793Z,997.82
2022-11-07T09:51:40.455Z,997.79
2022-11-07T09:52:40.861Z,997.85
2022-11-07T09:53:40.475Z,997.81
2022-11-07T09:54:40.403Z,997.81
2022-11-07T09:55:40.435Z,997.84
2022-11-07T09:56:40.486Z,997.78
2022-11-07T09:57:40.397Z,997.78
2022-11-07T09:58:40.466Z,997.75
2022-11-07T09:59:40.411Z,997.80
2022-11-07T10:00:40.401Z,997.77
2022-11-07T10:01:40.496Z,997.77
2022-11-07T10:02:40.344Z,997.81
2022-11-07T10:03:49.128Z,997.80
2022-11-07T10:04:41.338Z,997.77
2022-11-07T10:05:41.346Z,997.77
2022-11-07T10:06:40.285Z,997.80
2022-11-07T10:07:40.259Z,997.88
2022-11-07T10:08:40.305Z,997.85
2022-11-07T10:09:40.298Z,997.83
2022-11-07T10:10:40.218Z,997.83
2022-11-07T10:11:40.228Z,997.85
2022-11-07T10:12:44.330Z,997.90
2022-11-07T10:13:40.209Z,997.83
2022-11-07T10:14:40.285Z,997.85
2022-11-07T10:15:40.211Z,997.87
2022-11-07T10:16:40.511Z,997.82
2022-11-07T10:17:40.168Z,997.84
2022-11-07T10:18:40.152Z,997.92
2022-11-07T10:19:40.171Z,997.87
2022-11-07T10:20:50.069Z,997.92
2022-11-07T10:21:41.120Z,997.87
2022-11-07T10:22:40.110Z,997.91
2022-11-07T10:23:40.163Z,997.94
2022-11-07T10:24:40.070Z,997.92
2022-11-07T10:25:40.102Z,997.89
2022-11-07T10:26:40.132Z,997.91
2022-11-07T10:27:40.051Z,997.88
2022-11-07T10:28:40.080Z,997.86
2022-11-07T10:29:44.375Z,997.92
2022-11-07T10:30:40.281Z,997.91
2022-11-07T10:31:40.003Z,997.85
2022-11-07T10:32:40.007Z,997.79
2022-11-07T10:33:39.998Z,997.81
2022-11-07T10:34:39.992Z,997.84
2022-11-07T10:35:39.958Z,997.86
2022-11-07T10:36:39.945Z,997.83
2022-11-07T10:37:40.203Z,997.84
2022-11-07T10:38:39.948Z,997.85
2022-11-07T10:39:39.915Z,997.90
2022-11-07T10:40:39.909Z,997.90
2022-11-07T10:41:39.970Z,997.92
2022-11-07T10:42:39.931Z,997.89
2022-11-07T10:43:39.890Z,997.91
2022-11-07T10:44:39.903Z,997.86
2022-11-07T10:45:39.849Z,997.89
2022-11-07T10:46:39.837Z,997.93
2022-11-07T10:47:39.816Z,997.90
2022-11-07T10:48:39.837Z,997.86
2022-11-07T10:49:40.151Z,997.90
2022-11-07T10:50:39.858Z,997.94
2022-11-07T10:51:39.759Z,997.92
2022-11-07T10:52:39.793Z,997.90
2022-11-07T10:53:39.770Z,997.92
2022-11-07T10:54:39.904Z,997.89
2022-11-07T10:55:39.794Z,997.92
2022-11-07T10:56:39.745Z,997.91
2022-11-07T10:57:39.715Z,997.92
2022-11-07T10:58:39.749Z,997.91
2022-11-07T10:59:39.741Z,997.90
2022-11-07T11:00:39.789Z,997.88
2022-11-07T11:01:39.801Z,997.91
2022-11-07T11:02:39.699Z,997.96
2022-11-07T11:03:44.770Z,997.94
2022-11-07T11:04:40.795Z,997.94
2022-11-07T11:05:39.650Z,997.94
2022-11-07T11:06:39.615Z,997.97
2022-11-07T11:07:39.607Z,997.94
2022-11-07T11:08:39.741Z,997.89
2022-11-07T11:09:39.856Z,997.87
2022-11-07T11:10:39.571Z,997.87
2022-11-07T11:11:39.915Z,997.84
2022-11-07T11:12:39.517Z,997.81
2022-11-07T11:13:39.516Z,997.81
2022-11-07T11:14:39.621Z,997.81
2022-11-07T11:15:39.490Z,997.73
2022-11-07T11:16:39.548Z,997.69
2022-11-07T11:17:40.899Z,997.77
2022-11-07T11:18:40.485Z,997.73
2022-11-07T11:19:40.075Z,997.71
2022-11-07T11:20:40.326Z,997.72
2022-11-07T11:21:39.438Z,997.72
2022-11-07T11:22:42.572Z,997.74
2022-11-07T11:23:39.428Z,997.68
2022-11-07T11:24:39.381Z,997.71
2022-11-07T11:25:39.844Z,997.71
2022-11-07T11:26:39.463Z,997.70
2022-11-07T11:27:40.291Z,997.68
2022-11-07T11:28:40.115Z,997.67
2022-11-07T11:29:39.878Z,997.65
2022-11-07T11:30:39.345Z,997.66
2022-11-07T11:31:39.334Z,997.63
2022-11-07T11:32:39.345Z,997.61
2022-11-07T11:33:39.864Z,997.61
2022-11-07T11:34:39.280Z,997.61
2022-11-07T11:35:42.179Z,997.57
2022-11-07T11:36:39.274Z,997.61
2022-11-07T11:37:39.329Z,997.57
2022-11-07T11:38:40.019Z,997.54
2022-11-07T11:39:39.305Z,997.47
2022-11-07T11:40:39.205Z,997.58
2022-11-07T11:41:39.268Z,997.55
2022-11-07T11:42:39.230Z,997.56
2022-11-07T11:43:39.196Z,997.58
2022-11-07T11:44:39.199Z,997.55
2022-11-07T11:45:39.197Z,997.57
2022-11-07T11:46:39.431Z,997.50
2022-11-07T11:47:39.280Z,997.49
2022-11-07T11:48:39.209Z,997.50
2022-11-07T11:49:39.141Z,997.52
2022-11-07T11:50:42.150Z,997.48
2022-11-07T11:51:39.111Z,997.52
2022-11-07T11:52:39.118Z,997.46
2022-11-07T11:53:39.088Z,997.47
2022-11-07T11:54:39.077Z,997.46
2022-11-07T11:55:39.153Z,997.51
2022-11-07T11:56:39.168Z,997.53
2022-11-07T11:57:39.032Z,997.49
2022-11-07T11:58:39.023Z,997.51
2022-11-07T11:59:39.044Z,997.46
2022-11-07T12:00:39.005Z,997.55
2022-11-07T12:01:39.089Z,997.56
2022-11-07T12:02:38.982Z,997.51
2022-11-07T12:03:38.972Z,997.53
2022-11-07T12:04:38.979Z,997.57
2022-11-07T12:05:38.956Z,997.59
2022-11-07T12:06:39.934Z,997.60
2022-11-07T12:07:38.907Z,997.63
2022-11-07T12:08:38.924Z,997.67
2022-11-07T12:09:38.883Z,997.67
2022-11-07T12:10:38.921Z,997.64
2022-11-07T12:11:38.856Z,997.68
2022-11-07T12:12:38.867Z,997.65
2022-11-07T12:13:38.873Z,997.67
2022-11-07T12:14:38.835Z,997.72
2022-11-07T12:15:38.837Z,997.72
2022-11-07T12:16:38.827Z,997.73
2022-11-07T12:17:38.814Z,997.74
2022-11-07T12:18:38.809Z,997.77
2022-11-07T12:19:38.820Z,997.75
2022-11-07T12:20:38.780Z,997.78
2022-11-07T12:21:38.780Z,997.77
2022-11-07T12:22:38.749Z,997.76
2022-11-07T12:23:38.762Z,997.72
2022-11-07T12:24:38.711Z,997.67
2022-11-07T12:25:38.697Z,997.65
2022-11-07T12:26:38.751Z,997.65
2022-11-07T12:27:38.688Z,997.73
2022-11-07T12:28:38.704Z,997.61
2022-11-07T12:29:38.684Z,997.65